createdAt,value
2019-05-18T00:00:10.415Z,91.63
2019-05-18T00:02:38.987Z,91.57
2019-05-18T00:05:08.822Z,91.69
2019-05-18T00:07:37.454Z,91.74
2019-05-18T00:10:07.362Z,91.90
2019-05-18T00:12:35.954Z,92.20
2019-05-18T00:15:06.836Z,92.75
2019-05-18T00:17:35.420Z,92.84
2019-05-18T00:20:08.183Z,93.28
2019-05-18T00:22:36.961Z,93.18
2019-05-18T00:25:09.256Z,93.30
2019-05-18T00:27:37.770Z,93.63
2019-05-18T00:30:10.595Z,93.56
2019-05-18T00:32:39.083Z,93.70
2019-05-18T00:35:08.169Z,93.90
2019-05-18T00:37:36.645Z,93.77
2019-05-18T00:40:07.853Z,93.94
2019-05-18T00:42:36.388Z,94.24
2019-05-18T00:45:07.104Z,94.81
2019-05-18T00:47:41.255Z,94.74
2019-05-18T00:50:06.828Z,94.81
2019-05-18T00:52:35.410Z,95.55
2019-05-18T00:55:05.297Z,95.44
2019-05-18T00:57:33.745Z,95.27
2019-05-18T01:00:02.195Z,95.64
2019-05-18T01:02:30.714Z,95.58
2019-05-18T01:04:59.271Z,95.83
2019-05-18T01:07:27.717Z,95.94
2019-05-18T01:09:56.250Z,95.97
2019-05-18T01:12:24.868Z,95.94
2019-05-18T01:14:53.324Z,95.94
2019-05-18T01:17:21.904Z,95.86
2019-05-18T01:19:50.798Z,96.11
2019-05-18T01:22:19.393Z,96.01
2019-05-18T01:24:47.968Z,95.93
2019-05-18T01:27:16.495Z,95.93
2019-05-18T01:29:45.028Z,95.86
2019-05-18T01:32:13.599Z,96.13
2019-05-18T01:34:42.126Z,95.97
2019-05-18T01:37:10.727Z,95.80
2019-05-18T01:39:39.254Z,96.53
2019-05-18T01:42:07.774Z,96.46
2019-05-18T01:44:36.399Z,96.41
2019-05-18T01:47:04.982Z,96.47
2019-05-18T01:49:33.511Z,96.39
2019-05-18T01:52:02.034Z,96.15
2019-05-18T01:54:30.533Z,96.33
2019-05-18T01:56:59.054Z,96.69
2019-05-18T01:59:27.588Z,96.42
2019-05-18T02:01:56.171Z,96.58
2019-05-18T02:04:24.756Z,96.98
2019-05-18T02:06:53.389Z,96.97
2019-05-18T02:09:21.903Z,97.28
2019-05-18T02:11:50.559Z,97.20
2019-05-18T02:14:19.079Z,97.87
2019-05-18T02:16:47.590Z,98.21
2019-05-18T02:19:16.248Z,98.18
2019-05-18T02:21:44.764Z,97.42
2019-05-18T02:24:13.291Z,97.29
2019-05-18T02:26:41.798Z,97.21
2019-05-18T02:29:10.323Z,97.50
2019-05-18T02:31:38.834Z,97.90
2019-05-18T02:34:07.421Z,98.10
2019-05-18T02:36:36.002Z,98.12
2019-05-18T02:39:06.967Z,98.40
2019-05-18T02:41:35.626Z,98.45
2019-05-18T02:44:04.619Z,98.59
2019-05-18T02:46:33.135Z,98.59
2019-05-18T02:49:01.644Z,98.56
2019-05-18T02:51:30.233Z,99.12
2019-05-18T02:53:58.747Z,98.81
2019-05-18T02:56:27.260Z,99.21
2019-05-18T02:58:55.774Z,98.88
2019-05-18T03:01:24.225Z,98.76
2019-05-18T03:03:52.763Z,98.90
2019-05-18T03:06:21.527Z,98.91
2019-05-18T03:08:50.221Z,99.35
2019-05-18T03:11:18.669Z,99.11
2019-05-18T03:13:47.181Z,98.83
2019-05-18T03:16:15.774Z,98.95
2019-05-18T03:18:44.482Z,99.09
2019-05-18T03:21:13.253Z,98.98
2019-05-18T03:23:41.943Z,99.29
2019-05-18T03:26:10.385Z,99.40
2019-05-18T03:28:38.896Z,99.99
2019-05-18T03:31:07.522Z,100.00
2019-05-18T03:33:36.106Z,100.00
2019-05-18T03:36:04.752Z,99.71
2019-05-18T03:38:33.163Z,99.97
2019-05-18T03:41:01.719Z,100.00
2019-05-18T03:43:30.208Z,100.00
2019-05-18T03:45:58.691Z,100.00
2019-05-18T03:48:27.219Z,100.00
2019-05-18T03:50:55.693Z,99.64
2019-05-18T03:53:24.204Z,99.55
2019-05-18T03:55:52.655Z,99.54
2019-05-18T03:58:21.191Z,99.30
2019-05-18T04:00:49.639Z,99.25
2019-05-18T04:03:18.115Z,99.12
2019-05-18T04:05:46.627Z,99.25
2019-05-18T04:08:15.198Z,99.46
2019-05-18T04:10:43.667Z,99.87
2019-05-18T04:13:12.309Z,99.88
2019-05-18T04:15:40.749Z,99.92
2019-05-18T04:18:09.303Z,99.74
2019-05-18T04:20:37.900Z,99.75
2019-05-18T04:23:06.447Z,99.96
2019-05-18T04:25:34.990Z,99.96
2019-05-18T04:28:03.521Z,99.69
2019-05-18T04:30:32.047Z,99.77
2019-05-18T04:33:00.731Z,99.62
2019-05-18T04:35:29.280Z,99.41
2019-05-18T04:37:57.871Z,99.28
2019-05-18T04:40:26.668Z,99.02
2019-05-18T04:42:55.142Z,98.88
2019-05-18T04:45:23.848Z,98.73
2019-05-18T04:47:52.416Z,98.64
2019-05-18T04:50:21.016Z,98.52
2019-05-18T04:52:49.501Z,98.34
2019-05-18T04:55:18.052Z,98.23
2019-05-18T04:57:46.521Z,98.01
2019-05-18T05:00:15.157Z,97.88
2019-05-18T05:02:43.670Z,97.72
2019-05-18T05:05:12.256Z,97.61
2019-05-18T05:07:40.732Z,97.44
2019-05-18T05:10:09.419Z,97.35
2019-05-18T05:12:37.872Z,96.05
2019-05-18T05:15:06.797Z,93.66
2019-05-18T05:17:35.244Z,91.34
2019-05-18T05:20:18.634Z,89.22
2019-05-18T05:22:35.741Z,86.14
2019-05-18T05:25:04.488Z,83.73
2019-05-18T05:27:32.933Z,82.35
2019-05-18T05:30:01.486Z,80.98
2019-05-18T05:32:29.976Z,79.31
2019-05-18T05:34:58.495Z,77.44
2019-05-18T05:37:26.946Z,75.65
2019-05-18T05:39:55.493Z,76.78
2019-05-18T05:42:23.936Z,77.19
2019-05-18T05:44:52.486Z,77.43
2019-05-18T05:47:21.019Z,78.02
2019-05-18T05:49:49.491Z,78.11
2019-05-18T05:52:17.940Z,78.14
2019-05-18T05:54:46.537Z,78.16
2019-05-18T05:57:15.001Z,77.31
2019-05-18T05:59:43.454Z,76.13
2019-05-18T06:02:12.068Z,74.20
2019-05-18T06:04:40.594Z,73.16
2019-05-18T06:07:09.117Z,72.11
2019-05-18T06:09:37.660Z,70.80
2019-05-18T06:12:06.194Z,68.44
2019-05-18T06:14:34.760Z,66.33
2019-05-18T06:17:03.303Z,65.31
2019-05-18T06:19:31.760Z,63.52
2019-05-18T06:22:00.304Z,63.14
2019-05-18T06:24:28.788Z,61.58
2019-05-18T06:26:57.505Z,60.76
2019-05-18T06:29:26.061Z,60.76
2019-05-18T06:31:54.594Z,59.80
2019-05-18T06:34:23.152Z,58.54
2019-05-18T06:36:51.879Z,58.05
2019-05-18T06:39:20.315Z,56.77
2019-05-18T06:41:48.865Z,55.58
2019-05-18T06:44:17.538Z,54.81
2019-05-18T06:46:46.080Z,54.71
2019-05-18T06:49:14.606Z,54.10
2019-05-18T06:51:43.130Z,53.72
2019-05-18T06:54:11.748Z,53.72
2019-05-18T06:56:40.706Z,54.22
2019-05-18T06:59:10.287Z,54.21
2019-05-18T07:01:38.887Z,54.59
2019-05-18T07:04:07.499Z,54.18
2019-05-18T07:06:36.067Z,53.89
2019-05-18T07:09:12.939Z,53.51
2019-05-18T07:11:37.398Z,52.87
2019-05-18T07:14:06.001Z,53.25
2019-05-18T07:16:34.589Z,54.06
2019-05-18T07:19:03.203Z,55.01
2019-05-18T07:21:31.726Z,55.70
2019-05-18T07:24:00.248Z,55.72
2019-05-18T07:26:28.696Z,55.03
2019-05-18T07:28:57.292Z,54.94
2019-05-18T07:31:25.834Z,54.72
2019-05-18T07:33:54.355Z,54.82
2019-05-18T07:36:22.876Z,55.28
2019-05-18T07:38:51.333Z,55.67
2019-05-18T07:41:19.788Z,56.22
2019-05-18T07:43:48.461Z,56.75
2019-05-18T07:46:16.983Z,56.49
2019-05-18T07:48:45.593Z,56.49
2019-05-18T07:51:14.209Z,57.56
2019-05-18T07:53:42.727Z,57.12
2019-05-18T07:56:11.261Z,56.63
2019-05-18T07:58:39.699Z,56.81
2019-05-18T08:01:08.289Z,55.89
2019-05-18T08:03:36.897Z,55.25
2019-05-18T08:06:05.491Z,54.13
2019-05-18T08:08:34.008Z,53.04
2019-05-18T08:11:02.534Z,52.04
2019-05-18T08:13:31.142Z,52.89
2019-05-18T08:15:59.677Z,51.35
2019-05-18T08:18:28.215Z,50.64
2019-05-18T08:20:56.700Z,51.06
2019-05-18T08:23:25.255Z,51.10
2019-05-18T08:25:53.949Z,51.28
2019-05-18T08:28:22.647Z,52.07
2019-05-18T08:30:51.166Z,51.11
2019-05-18T08:33:19.690Z,50.93
2019-05-18T08:35:48.207Z,50.62
2019-05-18T08:38:16.755Z,50.37
2019-05-18T08:40:45.344Z,49.98
2019-05-18T08:43:13.958Z,50.05
2019-05-18T08:45:42.556Z,49.66
2019-05-18T08:48:11.084Z,49.25
2019-05-18T08:50:39.586Z,48.54
2019-05-18T08:53:08.109Z,46.82
2019-05-18T08:55:36.700Z,46.98
2019-05-18T08:58:05.216Z,47.62
2019-05-18T09:00:33.886Z,45.46
2019-05-18T09:03:02.512Z,44.73
2019-05-18T09:05:31.086Z,42.78
2019-05-18T09:07:59.545Z,41.91
2019-05-18T09:10:28.164Z,42.41
2019-05-18T09:12:56.801Z,42.32
2019-05-18T09:15:25.490Z,43.55
2019-05-18T09:17:53.951Z,42.19
2019-05-18T09:20:22.646Z,42.05
2019-05-18T09:22:51.381Z,41.55
2019-05-18T09:25:20.139Z,41.39
2019-05-18T09:27:48.691Z,41.34
2019-05-18T09:30:17.506Z,41.38
2019-05-18T09:32:46.050Z,40.65
2019-05-18T09:35:15.086Z,38.30
2019-05-18T09:37:43.665Z,38.33
2019-05-18T09:40:14.050Z,39.33
2019-05-18T09:42:42.657Z,38.72
2019-05-18T09:45:12.339Z,39.74
2019-05-18T09:47:40.957Z,40.75
2019-05-18T09:50:09.734Z,41.14
2019-05-18T09:52:46.374Z,40.86
2019-05-18T09:55:09.195Z,39.48
2019-05-18T09:57:37.813Z,40.91
2019-05-18T10:00:11.226Z,39.96
2019-05-18T10:02:40.095Z,39.24
2019-05-18T10:05:08.902Z,40.50
2019-05-18T10:07:37.487Z,40.63
2019-05-18T10:10:07.810Z,40.96
2019-05-18T10:12:36.479Z,42.17
2019-05-18T10:15:07.283Z,41.52
2019-05-18T10:17:35.798Z,42.33
2019-05-18T10:20:07.568Z,42.72
2019-05-18T10:22:36.105Z,42.47
2019-05-18T10:25:07.280Z,41.85
2019-05-18T10:27:35.758Z,41.16
2019-05-18T10:30:09.025Z,41.27
2019-05-18T10:32:37.814Z,42.25
2019-05-18T10:35:08.112Z,42.45
2019-05-18T10:37:36.688Z,41.72
2019-05-18T10:40:07.688Z,43.52
2019-05-18T10:42:36.274Z,41.62
2019-05-18T10:45:06.296Z,40.91
2019-05-18T10:47:34.876Z,41.46
2019-05-18T10:50:03.580Z,39.54
2019-05-18T10:52:32.058Z,38.54
2019-05-18T10:55:00.607Z,37.57
2019-05-18T10:57:29.132Z,36.85
2019-05-18T10:59:57.740Z,36.29
2019-05-18T11:02:26.323Z,37.38
2019-05-18T11:04:54.958Z,37.96
2019-05-18T11:07:23.615Z,36.92
2019-05-18T11:09:52.182Z,36.51
2019-05-18T11:12:20.767Z,36.39
2019-05-18T11:14:49.385Z,36.10
2019-05-18T11:17:17.900Z,36.13
2019-05-18T11:19:46.526Z,35.91
2019-05-18T11:22:15.052Z,35.72
2019-05-18T11:24:43.675Z,36.44
2019-05-18T11:27:12.273Z,38.53
2019-05-18T11:29:40.870Z,37.55
2019-05-18T11:32:09.529Z,36.79
2019-05-18T11:34:38.225Z,36.47
2019-05-18T11:37:06.839Z,36.75
2019-05-18T11:39:35.359Z,37.78
2019-05-18T11:42:03.872Z,37.50
2019-05-18T11:44:32.464Z,37.46
2019-05-18T11:47:01.165Z,37.52
2019-05-18T11:49:29.703Z,37.71
2019-05-18T11:51:58.289Z,37.03
2019-05-18T11:54:26.826Z,36.25
2019-05-18T11:56:55.456Z,36.48
2019-05-18T11:59:23.894Z,37.44
2019-05-18T12:01:52.585Z,36.48
2019-05-18T12:04:21.273Z,36.66
2019-05-18T12:06:49.823Z,38.40
2019-05-18T12:09:18.268Z,37.31
2019-05-18T12:11:46.818Z,36.73
2019-05-18T12:14:15.335Z,37.18
2019-05-18T12:16:44.054Z,35.49
2019-05-18T12:19:12.631Z,35.68
2019-05-18T12:21:41.222Z,35.73
2019-05-18T12:24:15.432Z,35.02
2019-05-18T12:26:40.125Z,35.22
2019-05-18T12:29:08.738Z,35.24
2019-05-18T12:31:37.337Z,36.39
2019-05-18T12:34:05.927Z,37.58
2019-05-18T12:36:34.511Z,37.24
2019-05-18T12:39:03.913Z,37.39
2019-05-18T12:41:32.409Z,37.13
2019-05-18T12:44:00.948Z,37.02
2019-05-18T12:46:29.475Z,36.21
2019-05-18T12:48:58.052Z,37.04
2019-05-18T12:51:26.586Z,36.75
2019-05-18T12:53:55.093Z,35.54
2019-05-18T12:56:23.708Z,35.01
2019-05-18T12:58:52.263Z,34.75
2019-05-18T13:01:20.971Z,34.95
2019-05-18T13:03:49.547Z,34.86
2019-05-18T13:06:18.166Z,34.78
2019-05-18T13:08:46.695Z,34.70
2019-05-18T13:11:15.360Z,35.73
2019-05-18T13:13:43.807Z,34.72
2019-05-18T13:16:12.378Z,35.22
2019-05-18T13:18:40.958Z,35.14
2019-05-18T13:21:09.571Z,35.73
2019-05-18T13:23:38.081Z,35.98
2019-05-18T13:26:06.666Z,36.64
2019-05-18T13:28:35.118Z,37.99
2019-05-18T13:31:03.789Z,36.49
2019-05-18T13:33:32.395Z,37.17
2019-05-18T13:36:00.917Z,36.46
2019-05-18T13:38:29.394Z,37.57
2019-05-18T13:40:57.979Z,37.70
2019-05-18T13:43:26.627Z,35.97
2019-05-18T13:45:55.140Z,35.95
2019-05-18T13:48:23.721Z,36.28
2019-05-18T13:50:52.296Z,35.12
2019-05-18T13:53:20.962Z,35.17
2019-05-18T13:55:49.571Z,35.60
2019-05-18T13:58:18.101Z,35.14
2019-05-18T14:00:46.740Z,35.38
2019-05-18T14:03:15.335Z,34.88
2019-05-18T14:05:43.958Z,35.19
2019-05-18T14:08:15.819Z,35.07
2019-05-18T14:10:43.846Z,35.06
2019-05-18T14:13:12.707Z,35.45
2019-05-18T14:15:41.407Z,35.60
2019-05-18T14:18:10.118Z,35.71
2019-05-18T14:20:38.672Z,36.26
2019-05-18T14:23:07.285Z,36.53
2019-05-18T14:25:36.069Z,37.00
2019-05-18T14:28:04.769Z,37.19
2019-05-18T14:30:33.350Z,38.12
2019-05-18T14:33:02.011Z,39.10
2019-05-18T14:35:33.456Z,39.97
2019-05-18T14:38:01.091Z,39.61
2019-05-18T14:40:29.887Z,39.91
2019-05-18T14:42:58.779Z,39.76
2019-05-18T14:45:27.672Z,40.08
2019-05-18T14:47:57.123Z,41.54
2019-05-18T14:50:26.253Z,41.01
2019-05-18T14:52:55.050Z,41.86
2019-05-18T14:55:33.260Z,42.00
2019-05-18T14:57:55.748Z,42.01
2019-05-18T15:00:24.890Z,42.68
2019-05-18T15:02:53.900Z,42.25
2019-05-18T15:05:23.786Z,42.35
2019-05-18T15:07:53.142Z,43.46
2019-05-18T15:10:21.992Z,42.55
2019-05-18T15:12:50.994Z,42.28
2019-05-18T15:15:21.213Z,42.37
2019-05-18T15:17:49.835Z,42.40
2019-05-18T15:20:19.376Z,41.48
2019-05-18T15:22:48.383Z,43.74
2019-05-18T15:25:17.621Z,43.07
2019-05-18T15:27:46.279Z,44.66
2019-05-18T15:30:15.995Z,43.21
2019-05-18T15:32:44.852Z,44.55
2019-05-18T15:35:14.451Z,44.54
2019-05-18T15:37:43.836Z,43.79
2019-05-18T15:40:13.152Z,43.60
2019-05-18T15:42:41.654Z,43.56
2019-05-18T15:45:10.907Z,45.03
2019-05-18T15:47:39.947Z,46.79
2019-05-18T15:50:08.736Z,47.97
2019-05-18T15:52:37.814Z,48.96
2019-05-18T15:55:08.402Z,49.61
2019-05-18T15:57:37.343Z,50.57
2019-05-18T16:00:08.202Z,50.98
2019-05-18T16:02:36.713Z,51.52
2019-05-18T16:05:05.867Z,51.99
2019-05-18T16:07:34.550Z,52.56
2019-05-18T16:10:03.187Z,53.11
2019-05-18T16:12:31.861Z,53.62
2019-05-18T16:15:00.807Z,54.05
2019-05-18T16:17:39.017Z,54.54
2019-05-18T16:19:59.800Z,55.15
2019-05-18T16:22:28.589Z,55.46
2019-05-18T16:24:57.159Z,55.65
2019-05-18T16:27:25.764Z,55.65
2019-05-18T16:29:54.567Z,56.63
2019-05-18T16:32:23.804Z,57.22
2019-05-18T16:34:52.534Z,57.37
2019-05-18T16:37:21.056Z,59.05
2019-05-18T16:39:49.891Z,58.40
2019-05-18T16:42:18.793Z,58.59
2019-05-18T16:44:47.375Z,59.73
2019-05-18T16:47:15.981Z,62.04
2019-05-18T16:49:44.689Z,63.85
2019-05-18T16:52:13.283Z,64.28
2019-05-18T16:54:41.909Z,63.79
2019-05-18T16:57:10.566Z,67.54
2019-05-18T16:59:39.199Z,67.39
2019-05-18T17:02:07.994Z,68.40
2019-05-18T17:04:36.867Z,69.73
2019-05-18T17:07:05.456Z,72.51
2019-05-18T17:09:34.046Z,73.96
2019-05-18T17:12:02.861Z,74.73
2019-05-18T17:14:31.564Z,76.86
2019-05-18T17:17:00.126Z,78.67
2019-05-18T17:19:28.839Z,80.32
2019-05-18T17:21:57.764Z,80.92
2019-05-18T17:24:26.441Z,81.43
2019-05-18T17:26:55.887Z,81.74
2019-05-18T17:29:24.971Z,82.72
2019-05-18T17:31:53.845Z,83.57
2019-05-18T17:34:23.221Z,82.71
2019-05-18T17:36:53.013Z,82.70
2019-05-18T17:39:23.081Z,82.19
2019-05-18T17:41:53.021Z,81.70
2019-05-18T17:44:22.218Z,81.92
2019-05-18T17:46:51.420Z,83.45
2019-05-18T17:49:26.896Z,83.57
2019-05-18T17:51:51.404Z,84.09
2019-05-18T17:54:20.995Z,85.26
2019-05-18T17:56:49.827Z,84.83
2019-05-18T17:59:18.957Z,85.84
2019-05-18T18:01:47.783Z,85.95
2019-05-18T18:04:17.535Z,86.97
2019-05-18T18:06:46.867Z,87.30
2019-05-18T18:09:16.598Z,86.46
2019-05-18T18:11:46.972Z,86.41
2019-05-18T18:14:16.953Z,86.11
2019-05-18T18:16:46.919Z,86.74
2019-05-18T18:19:16.759Z,87.36
2019-05-18T18:21:46.577Z,86.67
2019-05-18T18:24:16.645Z,85.77
2019-05-18T18:26:45.533Z,86.79
2019-05-18T18:29:14.824Z,86.76
2019-05-18T18:31:43.808Z,86.84
2019-05-18T18:34:12.783Z,87.33
2019-05-18T18:36:41.812Z,87.16
2019-05-18T18:39:11.845Z,87.69
2019-05-18T18:41:41.660Z,87.83
2019-05-18T18:44:10.898Z,88.00
2019-05-18T18:46:39.690Z,88.31
2019-05-18T18:49:09.847Z,88.42
2019-05-18T18:51:39.882Z,88.33
2019-05-18T18:54:12.673Z,88.74
2019-05-18T18:56:41.829Z,88.22
2019-05-18T18:59:11.795Z,88.73
2019-05-18T19:01:41.921Z,88.99
2019-05-18T19:04:11.748Z,89.53
2019-05-18T19:06:41.304Z,89.80
2019-05-18T19:09:11.451Z,89.50
2019-05-18T19:11:42.408Z,89.17
2019-05-18T19:14:12.539Z,89.40
2019-05-18T19:16:43.588Z,88.79
2019-05-18T19:19:12.911Z,89.09
2019-05-18T19:21:42.432Z,89.05
2019-05-18T19:24:12.300Z,89.10
2019-05-18T19:26:42.071Z,89.09
2019-05-18T19:29:12.937Z,89.11
2019-05-18T19:31:43.436Z,89.37
2019-05-18T19:34:13.548Z,89.08
2019-05-18T19:36:43.591Z,89.04
2019-05-18T19:39:13.517Z,89.22
2019-05-18T19:41:43.972Z,89.26
2019-05-18T19:44:14.375Z,89.37
2019-05-18T19:46:43.864Z,89.51
2019-05-18T19:49:14.670Z,89.63
2019-05-18T19:51:45.211Z,89.49
2019-05-18T19:54:15.704Z,89.55
2019-05-18T19:56:46.169Z,89.75
2019-05-18T19:59:16.980Z,89.85
2019-05-18T20:01:47.490Z,89.85
2019-05-18T20:05:11.469Z,89.42
2019-05-18T20:07:41.663Z,89.15
2019-05-18T20:10:12.925Z,89.43
2019-05-18T20:12:43.575Z,89.43
2019-05-18T20:15:14.626Z,89.00
2019-05-18T20:17:45.439Z,89.28
2019-05-18T20:20:16.079Z,89.08
2019-05-18T20:22:47.136Z,89.73
2019-05-18T20:29:52.689Z,90.11
2019-05-18T20:32:23.407Z,90.00
2019-05-18T20:34:53.911Z,90.64
2019-05-18T20:37:24.262Z,90.97
2019-05-18T20:39:55.386Z,91.38
2019-05-18T20:42:25.612Z,91.97
2019-05-18T20:44:55.644Z,92.55
2019-05-18T20:47:25.675Z,92.44
2019-05-18T20:50:31.289Z,92.58
2019-05-18T20:53:01.563Z,91.77
2019-05-18T20:55:31.351Z,90.81
2019-05-18T20:58:00.557Z,90.51
2019-05-18T21:00:29.397Z,90.30
2019-05-18T21:02:58.273Z,89.76
2019-05-18T21:05:27.075Z,89.04
2019-05-18T21:07:56.040Z,88.41
2019-05-18T21:10:24.840Z,87.84
2019-05-18T21:12:53.362Z,87.69
2019-05-18T21:15:22.416Z,86.70
2019-05-18T21:17:51.019Z,86.02
2019-05-18T21:20:19.710Z,85.73
2019-05-18T21:22:48.308Z,85.82
2019-05-18T21:25:17.050Z,84.91
2019-05-18T21:27:46.050Z,84.80
2019-05-18T21:30:15.047Z,84.76
2019-05-18T21:32:43.901Z,85.11
2019-05-18T21:35:12.846Z,85.01
2019-05-18T21:37:41.827Z,84.98
2019-05-18T21:40:10.746Z,84.82
2019-05-18T21:42:39.264Z,84.60
2019-05-18T21:45:08.855Z,84.28
2019-05-18T21:47:37.370Z,84.40
2019-05-18T21:50:08.075Z,84.09
2019-05-18T21:52:36.737Z,83.88
2019-05-18T21:55:06.987Z,83.27
2019-05-18T21:57:35.536Z,83.17
2019-05-18T22:00:05.325Z,82.84
2019-05-18T22:02:33.905Z,82.35
2019-05-18T22:05:02.580Z,81.63
2019-05-18T22:07:31.163Z,81.49
2019-05-18T22:09:59.644Z,81.37
2019-05-18T22:12:28.224Z,81.26
2019-05-18T22:14:56.834Z,81.12
2019-05-18T22:17:25.348Z,81.20
2019-05-18T22:19:54.225Z,81.07
2019-05-18T22:22:22.710Z,81.03
2019-05-18T22:24:51.392Z,82.79
2019-05-18T22:27:19.855Z,83.85
2019-05-18T22:29:48.376Z,84.57
2019-05-18T22:32:16.929Z,84.89
2019-05-18T22:34:45.575Z,85.48
2019-05-18T22:37:14.245Z,86.19
2019-05-18T22:39:42.694Z,86.52
2019-05-18T22:42:11.330Z,86.90
2019-05-18T22:44:39.847Z,87.62
2019-05-18T22:47:08.388Z,87.72
2019-05-18T22:49:36.835Z,88.20
2019-05-18T22:52:05.447Z,88.83
2019-05-18T22:54:34.177Z,88.93
2019-05-18T22:57:02.727Z,89.36
2019-05-18T22:59:31.176Z,90.28
2019-05-18T23:01:59.764Z,90.42
2019-05-18T23:04:28.304Z,90.48
2019-05-18T23:06:56.832Z,91.05
2019-05-18T23:09:25.325Z,91.00
2019-05-18T23:11:53.872Z,91.49
2019-05-18T23:14:22.325Z,91.54
2019-05-18T23:16:50.973Z,91.92
2019-05-18T23:19:19.450Z,92.12
2019-05-18T23:21:48.064Z,92.54
2019-05-18T23:24:16.643Z,92.84
2019-05-18T23:26:45.123Z,92.98
2019-05-18T23:29:13.749Z,93.46
2019-05-18T23:31:42.366Z,93.58
2019-05-18T23:34:10.897Z,93.97
2019-05-18T23:36:39.368Z,94.76
2019-05-18T23:39:07.989Z,94.76
2019-05-18T23:41:36.511Z,94.99
2019-05-18T23:44:05.127Z,94.96
2019-05-18T23:46:33.650Z,95.12
2019-05-18T23:49:10.366Z,95.29
2019-05-18T23:51:32.476Z,95.70
2019-05-18T23:54:00.921Z,96.17
2019-05-18T23:56:29.528Z,96.74
2019-05-18T23:58:57.976Z,96.66
